sensor_id;sensor_type;location;lat;lon;timestamp;P1;durP1;ratioP1;P2;durP2;ratioP2
75156;SDS011;63736;50.076;8.198;2023-11-21T14:26:08;332.90;;;98.83;;
75156;SDS011;63736;50.076;8.198;2023-11-21T14:28:33;330.23;;;97.63;;
75156;SDS011;63736;50.076;8.198;2023-11-21T14:31:00;328.55;;;97.40;;
75156;SDS011;63736;50.076;8.198;2023-11-21T14:33:25;325.73;;;97.00;;
75156;SDS011;63736;50.076;8.198;2023-11-21T14:35:51;317.93;;;95.23;;
75156;SDS011;63736;50.076;8.198;2023-11-21T14:38:16;320.17;;;95.67;;
75156;SDS011;63736;50.076;8.198;2023-11-21T14:40:43;320.30;;;96.45;;
75156;SDS011;63736;50.076;8.198;2023-11-21T14:43:08;317.77;;;95.53;;
75156;SDS011;63736;50.076;8.198;2023-11-21T14:45:34;314.93;;;95.30;;
75156;SDS011;63736;50.076;8.198;2023-11-21T14:47:59;315.50;;;94.10;;
75156;SDS011;63736;50.076;8.198;2023-11-21T14:50:41;321.20;;;96.85;;
75156;SDS011;63736;50.076;8.198;2023-11-21T14:53:07;317.70;;;95.55;;
75156;SDS011;63736;50.076;8.198;2023-11-21T14:55:37;319.70;;;96.60;;
75156;SDS011;63736;50.076;8.198;2023-11-21T14:58:15;321.45;;;96.97;;
75156;SDS011;63736;50.076;8.198;2023-11-21T15:00:50;321.80;;;97.50;;
75156;SDS011;63736;50.076;8.198;2023-11-21T15:03:21;323.80;;;97.05;;
75156;SDS011;63736;50.076;8.198;2023-11-21T15:06:07;324.98;;;97.15;;
75156;SDS011;63736;50.076;8.198;2023-11-21T15:08:51;327.77;;;98.90;;
75156;SDS011;63736;50.076;8.198;2023-11-21T15:11:25;324.58;;;97.60;;
75156;SDS011;63736;50.076;8.198;2023-11-21T15:13:55;321.13;;;96.20;;
75156;SDS011;63736;50.076;8.198;2023-11-21T15:16:22;322.38;;;96.22;;
75156;SDS011;63736;50.076;8.198;2023-11-21T15:18:48;323.53;;;97.00;;
75156;SDS011;63736;50.076;8.198;2023-11-21T15:21:14;320.33;;;96.63;;
75156;SDS011;63736;50.076;8.198;2023-11-21T15:23:39;324.80;;;96.97;;
75156;SDS011;63736;50.076;8.198;2023-11-21T15:26:06;329.53;;;97.83;;
75156;SDS011;63736;50.076;8.198;2023-11-21T15:28:33;338.08;;;100.25;;
75156;SDS011;63736;50.076;8.198;2023-11-21T15:30:59;341.10;;;101.80;;
75156;SDS011;63736;50.076;8.198;2023-11-21T15:33:24;345.67;;;101.03;;
75156;SDS011;63736;50.076;8.198;2023-11-21T15:35:52;343.02;;;101.13;;
75156;SDS011;63736;50.076;8.198;2023-11-21T15:38:19;345.83;;;101.83;;
75156;SDS011;63736;50.076;8.198;2023-11-21T15:40:44;346.00;;;101.20;;
75156;SDS011;63736;50.076;8.198;2023-11-21T15:43:10;342.88;;;101.45;;
75156;SDS011;63736;50.076;8.198;2023-11-21T15:45:36;347.03;;;101.47;;
75156;SDS011;63736;50.076;8.198;2023-11-21T15:48:04;342.48;;;101.28;;
75156;SDS011;63736;50.076;8.198;2023-11-21T15:50:30;338.00;;;101.07;;
75156;SDS011;63736;50.076;8.198;2023-11-21T15:52:56;339.00;;;101.25;;
75156;SDS011;63736;50.076;8.198;2023-11-21T15:55:22;340.20;;;100.63;;
75156;SDS011;63736;50.076;8.198;2023-11-21T15:57:48;338.25;;;100.97;;
75156;SDS011;63736;50.076;8.198;2023-11-21T16:17:02;358.97;;;105.73;;
75156;SDS011;63736;50.076;8.198;2023-11-21T16:19:28;356.48;;;105.13;;
75156;SDS011;63736;50.076;8.198;2023-11-21T16:39:09;396.00;;;112.75;;
75156;SDS011;63736;50.076;8.198;2023-11-21T16:41:37;386.52;;;111.13;;
75156;SDS011;63736;50.076;8.198;2023-11-21T16:44:02;385.93;;;110.67;;
75156;SDS011;63736;50.076;8.198;2023-11-21T16:46:27;388.23;;;111.47;;
75156;SDS011;63736;50.076;8.198;2023-11-21T16:48:53;390.03;;;112.70;;
75156;SDS011;63736;50.076;8.198;2023-11-21T16:51:18;389.57;;;112.50;;
75156;SDS011;63736;50.076;8.198;2023-11-21T16:53:44;383.20;;;111.03;;
75156;SDS011;63736;50.076;8.198;2023-11-21T16:59:31;384.80;;;111.50;;
75156;SDS011;63736;50.076;8.198;2023-11-21T17:05:18;384.35;;;111.60;;
75156;SDS011;63736;50.076;8.198;2023-11-21T17:07:46;373.23;;;108.85;;
75156;SDS011;63736;50.076;8.198;2023-11-21T17:10:12;374.60;;;109.43;;
75156;SDS011;63736;50.076;8.198;2023-11-21T17:12:38;374.85;;;109.50;;
75156;SDS011;63736;50.076;8.198;2023-11-21T17:15:03;373.33;;;108.40;;
75156;SDS011;63736;50.076;8.198;2023-11-21T17:17:29;371.37;;;108.97;;
75156;SDS011;63736;50.076;8.198;2023-11-21T17:19:54;372.30;;;108.77;;
75156;SDS011;63736;50.076;8.198;2023-11-21T17:22:20;369.57;;;108.47;;
75156;SDS011;63736;50.076;8.198;2023-11-21T17:24:46;371.15;;;108.55;;
75156;SDS011;63736;50.076;8.198;2023-11-21T17:27:12;373.58;;;110.43;;
75156;SDS011;63736;50.076;8.198;2023-11-21T17:29:38;371.27;;;109.27;;
75156;SDS011;63736;50.076;8.198;2023-11-21T17:32:04;373.65;;;109.53;;
75156;SDS011;63736;50.076;8.198;2023-11-21T17:34:29;370.57;;;108.10;;
75156;SDS011;63736;50.076;8.198;2023-11-21T17:36:55;370.45;;;108.95;;
75156;SDS011;63736;50.076;8.198;2023-11-21T17:39:21;366.77;;;107.53;;
75156;SDS011;63736;50.076;8.198;2023-11-21T17:41:46;370.43;;;109.43;;
75156;SDS011;63736;50.076;8.198;2023-11-21T17:44:11;370.30;;;108.03;;
75156;SDS011;63736;50.076;8.198;2023-11-21T17:46:37;367.50;;;108.37;;
75156;SDS011;63736;50.076;8.198;2023-11-21T17:49:03;367.48;;;107.53;;
75156;SDS011;63736;50.076;8.198;2023-11-21T17:51:28;366.40;;;107.20;;
75156;SDS011;63736;50.076;8.198;2023-11-21T17:53:55;365.20;;;107.93;;
75156;SDS011;63736;50.076;8.198;2023-11-21T17:56:26;366.00;;;107.68;;
75156;SDS011;63736;50.076;8.198;2023-11-21T17:58:51;368.17;;;107.70;;
75156;SDS011;63736;50.076;8.198;2023-11-21T18:01:19;371.63;;;109.25;;
75156;SDS011;63736;50.076;8.198;2023-11-21T18:03:45;368.77;;;108.68;;
75156;SDS011;63736;50.076;8.198;2023-11-21T18:06:10;364.57;;;107.13;;
75156;SDS011;63736;50.076;8.198;2023-11-21T18:08:37;368.75;;;108.38;;
75156;SDS011;63736;50.076;8.198;2023-11-21T18:11:05;365.47;;;107.73;;
75156;SDS011;63736;50.076;8.198;2023-11-21T18:13:30;363.88;;;106.78;;
75156;SDS011;63736;50.076;8.198;2023-11-21T18:15:56;365.70;;;107.70;;
75156;SDS011;63736;50.076;8.198;2023-11-21T18:18:21;366.07;;;109.00;;
75156;SDS011;63736;50.076;8.198;2023-11-21T18:20:47;366.40;;;107.40;;
75156;SDS011;63736;50.076;8.198;2023-11-21T18:23:12;366.97;;;107.73;;
75156;SDS011;63736;50.076;8.198;2023-11-21T18:25:37;368.20;;;107.13;;
75156;SDS011;63736;50.076;8.198;2023-11-21T18:28:04;363.73;;;107.40;;
75156;SDS011;63736;50.076;8.198;2023-11-21T18:30:29;367.40;;;108.30;;
75156;SDS011;63736;50.076;8.198;2023-11-21T18:32:54;365.57;;;108.17;;
75156;SDS011;63736;50.076;8.198;2023-11-21T18:35:20;363.50;;;107.50;;
75156;SDS011;63736;50.076;8.198;2023-11-21T18:37:45;362.63;;;106.15;;
75156;SDS011;63736;50.076;8.198;2023-11-21T18:40:13;364.43;;;106.80;;
75156;SDS011;63736;50.076;8.198;2023-11-21T18:42:40;361.92;;;106.68;;
75156;SDS011;63736;50.076;8.198;2023-11-21T18:45:06;366.30;;;107.67;;
75156;SDS011;63736;50.076;8.198;2023-11-21T18:47:32;365.27;;;108.18;;
75156;SDS011;63736;50.076;8.198;2023-11-21T18:49:57;360.90;;;106.50;;
75156;SDS011;63736;50.076;8.198;2023-11-21T18:52:23;364.23;;;107.90;;
75156;SDS011;63736;50.076;8.198;2023-11-21T18:54:52;361.95;;;106.53;;
75156;SDS011;63736;50.076;8.198;2023-11-21T18:57:17;361.97;;;107.97;;
75156;SDS011;63736;50.076;8.198;2023-11-21T18:59:43;364.77;;;109.00;;
75156;SDS011;63736;50.076;8.198;2023-11-21T19:05:31;367.13;;;108.22;;
75156;SDS011;63736;50.076;8.198;2023-11-21T19:07:58;369.38;;;109.60;;
75156;SDS011;63736;50.076;8.198;2023-11-21T19:10:23;361.60;;;106.20;;
75156;SDS011;63736;50.076;8.198;2023-11-21T19:12:52;363.35;;;107.35;;
75156;SDS011;63736;50.076;8.198;2023-11-21T19:15:18;363.10;;;108.05;;
75156;SDS011;63736;50.076;8.198;2023-11-21T19:17:44;363.15;;;108.35;;
75156;SDS011;63736;50.076;8.198;2023-11-21T19:20:10;362.47;;;106.80;;
75156;SDS011;63736;50.076;8.198;2023-11-21T19:22:35;360.63;;;106.43;;
75156;SDS011;63736;50.076;8.198;2023-11-21T19:25:02;357.90;;;105.00;;
75156;SDS011;63736;50.076;8.198;2023-11-21T19:27:29;359.27;;;105.05;;
75156;SDS011;63736;50.076;8.198;2023-11-21T19:29:55;364.48;;;108.75;;
75156;SDS011;63736;50.076;8.198;2023-11-21T19:32:21;372.83;;;108.17;;
75156;SDS011;63736;50.076;8.198;2023-11-21T19:34:46;386.40;;;110.83;;
75156;SDS011;63736;50.076;8.198;2023-11-21T19:37:11;418.50;;;116.97;;
75156;SDS011;63736;50.076;8.198;2023-11-21T19:39:36;290.40;;;88.80;;
75156;SDS011;63736;50.076;8.198;2023-11-21T19:45:05;246.02;;;78.35;;
75156;SDS011;63736;50.076;8.198;2023-11-21T19:47:30;226.65;;;75.30;;
75156;SDS011;63736;50.076;8.198;2023-11-21T19:49:58;197.52;;;68.90;;
75156;SDS011;63736;50.076;8.198;2023-11-21T19:52:23;183.47;;;65.47;;
75156;SDS011;63736;50.076;8.198;2023-11-21T19:54:50;178.47;;;64.03;;
75156;SDS011;63736;50.076;8.198;2023-11-21T19:57:15;166.43;;;61.83;;
75156;SDS011;63736;50.076;8.198;2023-11-21T19:59:41;162.57;;;60.70;;
75156;SDS011;63736;50.076;8.198;2023-11-21T20:02:08;163.77;;;60.70;;
75156;SDS011;63736;50.076;8.198;2023-11-21T20:04:34;159.45;;;59.92;;
75156;SDS011;63736;50.076;8.198;2023-11-21T20:07:00;158.55;;;63.25;;
75156;SDS011;63736;50.076;8.198;2023-11-21T20:09:25;157.13;;;60.00;;
75156;SDS011;63736;50.076;8.198;2023-11-21T20:11:50;157.57;;;60.43;;
75156;SDS011;63736;50.076;8.198;2023-11-21T20:14:16;151.43;;;59.40;;
75156;SDS011;63736;50.076;8.198;2023-11-21T20:16:42;151.23;;;58.72;;
75156;SDS011;63736;50.076;8.198;2023-11-21T20:19:09;152.35;;;58.78;;
75156;SDS011;63736;50.076;8.198;2023-11-21T20:24:57;169.65;;;62.08;;
75156;SDS011;63736;50.076;8.198;2023-11-21T20:27:23;155.77;;;60.27;;
75156;SDS011;63736;50.076;8.198;2023-11-21T20:29:48;160.67;;;60.87;;
75156;SDS011;63736;50.076;8.198;2023-11-21T20:32:13;156.70;;;59.97;;
75156;SDS011;63736;50.076;8.198;2023-11-21T20:34:39;152.10;;;58.80;;
75156;SDS011;63736;50.076;8.198;2023-11-21T20:37:04;149.27;;;58.20;;
75156;SDS011;63736;50.076;8.198;2023-11-21T20:39:30;153.23;;;59.10;;
75156;SDS011;63736;50.076;8.198;2023-11-21T20:41:57;156.07;;;60.85;;
75156;SDS011;63736;50.076;8.198;2023-11-21T20:44:23;157.07;;;60.70;;
75156;SDS011;63736;50.076;8.198;2023-11-21T20:46:48;153.17;;;59.40;;
75156;SDS011;63736;50.076;8.198;2023-11-21T20:49:13;153.43;;;60.03;;
75156;SDS011;63736;50.076;8.198;2023-11-21T20:51:39;158.20;;;60.97;;
75156;SDS011;63736;50.076;8.198;2023-11-21T20:54:06;177.25;;;64.35;;
75156;SDS011;63736;50.076;8.198;2023-11-21T20:56:32;185.95;;;65.78;;
75156;SDS011;63736;50.076;8.198;2023-11-21T20:58:58;202.83;;;69.27;;
75156;SDS011;63736;50.076;8.198;2023-11-21T21:01:33;197.10;;;68.30;;
75156;SDS011;63736;50.076;8.198;2023-11-21T21:03:59;200.93;;;69.45;;
75156;SDS011;63736;50.076;8.198;2023-11-21T21:06:26;202.88;;;68.63;;
75156;SDS011;63736;50.076;8.198;2023-11-21T21:08:52;199.00;;;68.22;;
75156;SDS011;63736;50.076;8.198;2023-11-21T21:11:19;213.47;;;72.47;;
75156;SDS011;63736;50.076;8.198;2023-11-21T21:13:45;217.10;;;72.65;;
75156;SDS011;63736;50.076;8.198;2023-11-21T21:16:11;231.18;;;76.80;;
75156;SDS011;63736;50.076;8.198;2023-11-21T21:18:36;237.60;;;76.77;;
75156;SDS011;63736;50.076;8.198;2023-11-21T21:21:01;246.83;;;78.70;;
75156;SDS011;63736;50.076;8.198;2023-11-21T21:23:27;246.70;;;79.33;;
75156;SDS011;63736;50.076;8.198;2023-11-21T21:25:53;247.18;;;80.30;;
75156;SDS011;63736;50.076;8.198;2023-11-21T21:28:18;244.97;;;79.60;;
75156;SDS011;63736;50.076;8.198;2023-11-21T21:30:45;245.68;;;80.00;;
75156;SDS011;63736;50.076;8.198;2023-11-21T21:33:10;244.93;;;78.77;;
75156;SDS011;63736;50.076;8.198;2023-11-21T21:38:58;282.90;;;87.80;;
75156;SDS011;63736;50.076;8.198;2023-11-21T21:41:23;228.60;;;75.63;;
75156;SDS011;63736;50.076;8.198;2023-11-21T21:43:49;210.45;;;71.32;;
75156;SDS011;63736;50.076;8.198;2023-11-21T21:46:15;199.38;;;69.05;;
75156;SDS011;63736;50.076;8.198;2023-11-21T21:48:42;195.10;;;67.27;;
75156;SDS011;63736;50.076;8.198;2023-11-21T21:51:14;194.93;;;67.30;;
75156;SDS011;63736;50.076;8.198;2023-11-21T21:53:43;217.00;;;72.30;;
75156;SDS011;63736;50.076;8.198;2023-11-21T21:56:09;214.60;;;71.45;;
75156;SDS011;63736;50.076;8.198;2023-11-21T21:58:35;216.30;;;73.97;;
75156;SDS011;63736;50.076;8.198;2023-11-21T22:01:00;222.83;;;73.70;;
75156;SDS011;63736;50.076;8.198;2023-11-21T22:03:30;221.37;;;73.27;;
75156;SDS011;63736;50.076;8.198;2023-11-21T22:05:56;202.43;;;68.85;;
75156;SDS011;63736;50.076;8.198;2023-11-21T22:08:23;200.70;;;68.93;;
75156;SDS011;63736;50.076;8.198;2023-11-21T22:10:52;203.55;;;68.95;;
75156;SDS011;63736;50.076;8.198;2023-11-21T22:13:17;225.23;;;73.07;;
75156;SDS011;63736;50.076;8.198;2023-11-21T22:15:42;213.23;;;71.20;;
75156;SDS011;63736;50.076;8.198;2023-11-21T22:18:08;211.97;;;71.43;;
75156;SDS011;63736;50.076;8.198;2023-11-21T22:20:34;208.40;;;69.43;;
75156;SDS011;63736;50.076;8.198;2023-11-21T22:23:00;200.95;;;68.30;;
75156;SDS011;63736;50.076;8.198;2023-11-21T22:25:26;202.80;;;68.68;;
75156;SDS011;63736;50.076;8.198;2023-11-21T22:27:51;201.87;;;67.70;;
75156;SDS011;63736;50.076;8.198;2023-11-21T22:30:16;204.43;;;69.17;;
75156;SDS011;63736;50.076;8.198;2023-11-21T22:32:42;201.88;;;67.65;;
75156;SDS011;63736;50.076;8.198;2023-11-21T22:35:08;206.20;;;69.53;;
75156;SDS011;63736;50.076;8.198;2023-11-21T22:37:34;195.40;;;67.63;;
75156;SDS011;63736;50.076;8.198;2023-11-21T22:39:59;198.40;;;67.30;;
75156;SDS011;63736;50.076;8.198;2023-11-21T22:42:25;195.67;;;67.00;;
75156;SDS011;63736;50.076;8.198;2023-11-21T22:44:50;197.30;;;66.90;;
75156;SDS011;63736;50.076;8.198;2023-11-21T22:47:15;199.97;;;67.17;;
75156;SDS011;63736;50.076;8.198;2023-11-21T22:49:41;201.63;;;68.40;;
75156;SDS011;63736;50.076;8.198;2023-11-21T22:52:06;193.87;;;66.50;;
75156;SDS011;63736;50.076;8.198;2023-11-21T22:54:32;172.88;;;61.58;;
75156;SDS011;63736;50.076;8.198;2023-11-21T22:56:57;158.33;;;58.57;;
75156;SDS011;63736;50.076;8.198;2023-11-21T22:59:23;141.50;;;55.77;;
75156;SDS011;63736;50.076;8.198;2023-11-21T23:01:48;129.67;;;53.87;;
75156;SDS011;63736;50.076;8.198;2023-11-21T23:04:15;110.88;;;50.33;;
75156;SDS011;63736;50.076;8.198;2023-11-21T23:06:43;101.45;;;49.05;;
75156;SDS011;63736;50.076;8.198;2023-11-21T23:09:10;90.18;;;46.53;;
75156;SDS011;63736;50.076;8.198;2023-11-21T23:11:36;82.60;;;44.63;;
75156;SDS011;63736;50.076;8.198;2023-11-21T23:14:02;74.87;;;41.97;;
75156;SDS011;63736;50.076;8.198;2023-11-21T23:16:27;74.60;;;42.40;;
75156;SDS011;63736;50.076;8.198;2023-11-21T23:18:52;76.47;;;42.77;;
75156;SDS011;63736;50.076;8.198;2023-11-21T23:21:18;77.57;;;43.47;;
75156;SDS011;63736;50.076;8.198;2023-11-21T23:23:43;76.40;;;42.60;;
75156;SDS011;63736;50.076;8.198;2023-11-21T23:26:08;75.00;;;42.97;;
75156;SDS011;63736;50.076;8.198;2023-11-21T23:28:35;72.13;;;41.78;;
75156;SDS011;63736;50.076;8.198;2023-11-21T23:31:01;69.97;;;41.23;;
75156;SDS011;63736;50.076;8.198;2023-11-21T23:33:26;68.73;;;40.43;;
75156;SDS011;63736;50.076;8.198;2023-11-21T23:35:55;67.97;;;40.30;;
75156;SDS011;63736;50.076;8.198;2023-11-21T23:38:21;66.43;;;40.92;;
75156;SDS011;63736;50.076;8.198;2023-11-21T23:40:47;64.17;;;39.60;;
75156;SDS011;63736;50.076;8.198;2023-11-21T23:43:12;65.60;;;40.43;;
75156;SDS011;63736;50.076;8.198;2023-11-21T23:45:37;60.80;;;38.55;;
75156;SDS011;63736;50.076;8.198;2023-11-21T23:48:03;61.23;;;38.03;;
75156;SDS011;63736;50.076;8.198;2023-11-21T23:50:29;60.03;;;38.88;;
75156;SDS011;63736;50.076;8.198;2023-11-21T23:52:54;58.30;;;37.60;;
75156;SDS011;63736;50.076;8.198;2023-11-21T23:55:20;59.97;;;37.70;;
75156;SDS011;63736;50.076;8.198;2023-11-21T23:57:45;57.17;;;37.37;;
